sensor_id;sensor_type;location;lat;lon;timestamp;noise_LAeq;noise_LA_min;noise_LA_max;noise_LA01;noise_LA95
68599;Laerm;18038;50.166;18.908;2023-11-19T10:52:22;40.74;33.75;49.85;;
68599;Laerm;18038;50.166;18.908;2023-11-19T11:20:41;51.04;32.32;83.62;;
68599;Laerm;18038;50.166;18.908;2023-11-19T11:24:25;51.33;32.66;79.21;;
68599;Laerm;18038;50.166;18.908;2023-11-19T11:32:15;35.67;31.36;63.53;;
68599;Laerm;18038;50.166;18.908;2023-11-19T11:35:41;41.28;31.22;71.16;;
68599;Laerm;18038;50.166;18.908;2023-11-19T11:38:59;34.65;31.26;56.34;;
68599;Laerm;18038;50.166;18.908;2023-11-19T11:42:39;43.33;31.27;72.62;;
68599;Laerm;18038;50.166;18.908;2023-11-19T11:45:47;40.48;31.31;69.31;;
68599;Laerm;18038;50.166;18.908;2023-11-19T11:48:57;51.61;31.46;78.35;;
68599;Laerm;18038;50.166;18.908;2023-11-19T11:52:10;32.42;31.23;38.64;;
68599;Laerm;18038;50.166;18.908;2023-11-19T11:55:24;44.62;31.39;72.89;;
68599;Laerm;18038;50.166;18.908;2023-11-19T11:58:36;42.48;31.43;72.84;;
68599;Laerm;18038;50.166;18.908;2023-11-19T12:02:03;46.56;31.49;74.65;;
68599;Laerm;18038;50.166;18.908;2023-11-19T12:05:11;36.81;31.71;65.51;;
68599;Laerm;18038;50.166;18.908;2023-11-19T12:08:28;34.44;31.52;58.34;;
68599;Laerm;18038;50.166;18.908;2023-11-19T12:11:36;36.32;31.61;63.93;;
68599;Laerm;18038;50.166;18.908;2023-11-19T12:15:08;47.80;31.68;75.79;;
68599;Laerm;18038;50.166;18.908;2023-11-19T12:18:19;49.10;31.61;77.84;;
68599;Laerm;18038;50.166;18.908;2023-11-19T12:21:31;34.28;31.64;55.31;;
68599;Laerm;18038;50.166;18.908;2023-11-19T12:24:45;48.40;31.72;74.92;;
68599;Laerm;18038;50.166;18.908;2023-11-19T12:27:54;32.82;31.68;36.29;;
68599;Laerm;18038;50.166;18.908;2023-11-19T12:35:58;41.09;33.24;49.81;;
68599;Laerm;18038;50.166;18.908;2023-11-19T12:39:11;41.00;33.67;52.53;;
68599;Laerm;18038;50.166;18.908;2023-11-19T12:42:21;44.12;33.88;51.76;;
68599;Laerm;18038;50.166;18.908;2023-11-19T12:45:36;46.02;36.62;52.63;;
68599;Laerm;18038;50.166;18.908;2023-11-19T12:48:43;43.33;34.98;52.63;;
68599;Laerm;18038;50.166;18.908;2023-11-19T12:51:55;42.98;35.69;52.74;;
68599;Laerm;18038;50.166;18.908;2023-11-19T12:55:05;45.28;37.14;58.21;;
68599;Laerm;18038;50.166;18.908;2023-11-19T12:58:33;45.74;38.21;54.06;;
68599;Laerm;18038;50.166;18.908;2023-11-19T13:01:41;48.25;40.73;65.03;;
68599;Laerm;18038;50.166;18.908;2023-11-19T13:04:50;50.94;35.90;58.24;;
68599;Laerm;18038;50.166;18.908;2023-11-19T13:08:08;43.45;34.84;57.42;;
68599;Laerm;18038;50.166;18.908;2023-11-19T13:11:33;43.63;34.41;56.34;;
68599;Laerm;18038;50.166;18.908;2023-11-19T13:17:59;40.98;33.82;57.10;;
68599;Laerm;18038;50.166;18.908;2023-11-19T13:21:10;44.91;34.50;58.60;;
68599;Laerm;18038;50.166;18.908;2023-11-19T13:24:21;42.50;34.15;53.53;;
68599;Laerm;18038;50.166;18.908;2023-11-19T13:27:29;48.33;34.68;66.22;;
68599;Laerm;18038;50.166;18.908;2023-11-19T13:30:37;58.15;32.83;81.38;;
68599;Laerm;18038;50.166;18.908;2023-11-19T13:33:44;64.66;35.30;81.52;;
68599;Laerm;18038;50.166;18.908;2023-11-19T13:36:52;52.71;39.38;61.05;;
68599;Laerm;18038;50.166;18.908;2023-11-19T13:40:06;49.37;34.16;67.15;;
68599;Laerm;18038;50.166;18.908;2023-11-19T13:43:16;47.87;34.96;63.58;;
68599;Laerm;18038;50.166;18.908;2023-11-19T13:46:27;48.81;34.86;65.51;;
